createdAt,value
2022-07-31T00:00:46.434Z,98.61
2022-07-31T00:01:59.925Z,98.43
2022-07-31T00:03:09.523Z,98.54
2022-07-31T00:04:15.678Z,98.69
2022-07-31T00:05:19.671Z,98.79
2022-07-31T00:06:23.756Z,98.68
2022-07-31T00:07:27.848Z,98.61
2022-07-31T00:08:31.935Z,98.62
2022-07-31T00:09:52.878Z,98.75
2022-07-31T00:10:57.965Z,98.59
2022-07-31T00:12:01.659Z,98.80
2022-07-31T00:13:05.667Z,98.58
2022-07-31T00:14:10.655Z,98.57
2022-07-31T00:15:15.328Z,98.31
2022-07-31T00:16:19.303Z,98.33
2022-07-31T00:17:23.239Z,98.33
2022-07-31T00:18:26.976Z,98.26
2022-07-31T00:19:30.899Z,98.54
2022-07-31T00:20:34.944Z,98.41
2022-07-31T00:21:38.799Z,98.47
2022-07-31T00:22:44.612Z,98.13
2022-07-31T00:23:48.527Z,98.23
2022-07-31T00:24:52.272Z,98.17
2022-07-31T00:25:56.782Z,98.18
2022-07-31T00:27:01.500Z,98.52
2022-07-31T00:28:07.363Z,98.22
2022-07-31T00:29:11.300Z,98.66
2022-07-31T00:30:19.993Z,98.26
2022-07-31T00:31:24.548Z,98.09
2022-07-31T00:32:28.404Z,98.22
2022-07-31T00:33:32.162Z,98.10
2022-07-31T00:34:35.907Z,98.03
2022-07-31T00:35:39.743Z,97.78
2022-07-31T00:36:43.805Z,98.08
2022-07-31T00:37:47.585Z,98.22
2022-07-31T00:38:51.587Z,98.29
2022-07-31T00:39:55.476Z,98.48
2022-07-31T00:40:59.485Z,98.76
2022-07-31T00:42:03.441Z,98.53
2022-07-31T00:43:07.283Z,98.42
2022-07-31T00:44:15.032Z,98.80
2022-07-31T00:45:19.026Z,99.01
2022-07-31T00:46:32.926Z,98.70
2022-07-31T00:47:39.308Z,98.51
2022-07-31T00:48:43.288Z,98.96
2022-07-31T00:49:48.041Z,98.65
2022-07-31T00:50:51.895Z,98.66
2022-07-31T00:51:55.726Z,98.41
2022-07-31T00:52:59.531Z,98.37
2022-07-31T00:54:03.442Z,98.47
2022-07-31T00:55:08.317Z,98.49
2022-07-31T00:56:12.242Z,98.33
2022-07-31T00:57:16.211Z,98.47
2022-07-31T00:58:21.261Z,98.38
2022-07-31T00:59:25.179Z,98.18
2022-07-31T01:00:29.167Z,98.25
2022-07-31T01:01:33.644Z,98.14
2022-07-31T01:02:38.548Z,97.82
2022-07-31T01:03:51.109Z,97.80
2022-07-31T01:04:54.906Z,97.87
2022-07-31T01:05:58.690Z,97.78
2022-07-31T01:07:02.798Z,97.75
2022-07-31T01:08:06.984Z,97.59
2022-07-31T01:09:10.975Z,97.71
2022-07-31T01:10:31.076Z,98.18
2022-07-31T01:11:50.075Z,98.19
2022-07-31T01:13:05.718Z,98.09
2022-07-31T01:14:13.210Z,97.77
2022-07-31T01:15:19.299Z,98.08
2022-07-31T01:16:29.261Z,98.06
2022-07-31T01:17:35.723Z,98.32
2022-07-31T01:18:42.678Z,98.09
2022-07-31T01:19:50.099Z,97.88
2022-07-31T01:21:00.537Z,97.84
2022-07-31T01:22:50.298Z,98.00
2022-07-31T01:24:32.031Z,97.67
2022-07-31T01:26:02.297Z,97.34
2022-07-31T01:27:49.456Z,97.16
2022-07-31T01:28:59.367Z,96.81
2022-07-31T01:30:05.755Z,96.90
2022-07-31T01:31:27.879Z,97.31
2022-07-31T01:32:49.648Z,97.80
2022-07-31T01:34:10.904Z,98.32
2022-07-31T01:35:31.117Z,97.95
2022-07-31T01:36:42.278Z,97.66
2022-07-31T01:38:04.805Z,97.65
2022-07-31T01:39:08.795Z,97.45
2022-07-31T01:40:17.332Z,97.26
2022-07-31T01:41:30.833Z,97.34
2022-07-31T01:42:41.092Z,97.22
2022-07-31T01:43:49.483Z,97.27
2022-07-31T01:45:00.749Z,97.00
2022-07-31T01:46:07.223Z,97.16
2022-07-31T01:47:17.228Z,97.40
2022-07-31T01:48:22.811Z,97.30
2022-07-31T01:49:28.785Z,97.16
2022-07-31T01:50:42.315Z,97.31
2022-07-31T01:51:48.897Z,97.30
2022-07-31T01:52:54.680Z,97.74
2022-07-31T01:54:00.527Z,97.73
2022-07-31T01:55:09.550Z,97.76
2022-07-31T01:56:18.140Z,98.02
2022-07-31T01:57:26.084Z,98.01
2022-07-31T01:58:35.453Z,98.02
2022-07-31T01:59:44.763Z,97.84
2022-07-31T02:00:54.428Z,97.63
2022-07-31T02:02:01.341Z,97.42
2022-07-31T02:03:09.912Z,98.01
2022-07-31T02:04:16.701Z,97.96
2022-07-31T02:05:21.965Z,98.05
2022-07-31T02:06:27.518Z,97.99
2022-07-31T02:07:31.770Z,97.84
2022-07-31T02:08:37.291Z,97.78
2022-07-31T02:09:52.278Z,97.83
2022-07-31T02:11:03.579Z,97.82
2022-07-31T02:12:12.260Z,97.97
2022-07-31T02:13:18.059Z,97.97
2022-07-31T02:14:24.506Z,98.16
2022-07-31T02:15:31.121Z,98.14
2022-07-31T02:16:37.936Z,98.07
2022-07-31T02:17:46.776Z,97.94
2022-07-31T02:18:54.150Z,98.03
2022-07-31T02:20:02.107Z,98.10
2022-07-31T02:21:06.106Z,97.95
2022-07-31T02:22:09.910Z,98.04
2022-07-31T02:23:14.264Z,97.98
2022-07-31T02:24:18.291Z,97.98
2022-07-31T02:25:22.214Z,98.09
2022-07-31T02:26:30.535Z,97.89
2022-07-31T02:27:54.381Z,98.39
2022-07-31T02:29:02.839Z,98.01
2022-07-31T02:30:08.039Z,98.27
2022-07-31T02:31:17.092Z,98.35
2022-07-31T02:32:23.421Z,98.20
2022-07-31T02:33:29.577Z,98.37
2022-07-31T02:34:36.408Z,98.24
2022-07-31T02:35:45.773Z,98.22
2022-07-31T02:36:53.728Z,98.29
2022-07-31T02:37:58.762Z,98.15
2022-07-31T02:39:03.995Z,98.13
2022-07-31T02:40:11.963Z,98.32
2022-07-31T02:41:17.556Z,98.41
2022-07-31T02:42:23.081Z,98.22
2022-07-31T02:43:28.843Z,98.31
2022-07-31T02:44:35.028Z,98.22
2022-07-31T02:45:40.820Z,98.51
2022-07-31T02:46:45.717Z,98.30
2022-07-31T02:47:51.073Z,98.42
2022-07-31T02:48:57.055Z,98.63
2022-07-31T02:50:02.526Z,98.89
2022-07-31T02:51:07.187Z,99.33
2022-07-31T02:52:13.348Z,99.44
2022-07-31T02:53:17.450Z,99.71
2022-07-31T02:54:21.604Z,100.00
2022-07-31T02:55:26.780Z,100.00
2022-07-31T02:56:33.293Z,100.00
2022-07-31T02:57:37.325Z,100.00
2022-07-31T02:58:42.949Z,100.00
2022-07-31T02:59:46.664Z,100.00
2022-07-31T03:01:04.918Z,100.00
2022-07-31T03:02:09.169Z,100.00
2022-07-31T03:03:12.905Z,100.00
2022-07-31T03:04:16.552Z,100.00
2022-07-31T03:05:21.767Z,100.00
2022-07-31T03:06:25.571Z,100.00
2022-07-31T03:07:29.397Z,100.00
2022-07-31T03:08:33.276Z,100.00
2022-07-31T03:09:38.140Z,100.00
2022-07-31T03:10:42.484Z,100.00
2022-07-31T03:11:47.068Z,100.00
2022-07-31T03:12:54.546Z,100.00
2022-07-31T03:14:02.186Z,100.00
2022-07-31T03:15:16.647Z,100.00
2022-07-31T03:16:23.900Z,100.00
2022-07-31T03:17:38.170Z,100.00
2022-07-31T03:18:46.327Z,100.00
2022-07-31T03:19:52.817Z,100.00
2022-07-31T03:20:57.679Z,100.00
2022-07-31T03:22:02.883Z,100.00
2022-07-31T03:23:07.255Z,100.00
2022-07-31T03:24:12.193Z,100.00
2022-07-31T03:25:21.934Z,100.00
2022-07-31T03:26:26.732Z,100.00
2022-07-31T03:27:30.950Z,100.00
2022-07-31T03:28:36.160Z,100.00
2022-07-31T03:29:43.674Z,100.00
2022-07-31T03:30:56.092Z,100.00
2022-07-31T03:32:01.496Z,100.00
2022-07-31T03:33:06.898Z,100.00
2022-07-31T03:34:12.166Z,100.00
2022-07-31T03:35:16.349Z,100.00
2022-07-31T03:36:20.248Z,100.00
2022-07-31T03:37:24.213Z,100.00
2022-07-31T03:38:38.534Z,100.00
2022-07-31T03:39:46.300Z,100.00
2022-07-31T03:40:50.190Z,100.00
2022-07-31T03:41:56.881Z,100.00
2022-07-31T03:43:03.594Z,100.00
2022-07-31T03:44:09.294Z,100.00
2022-07-31T03:45:17.737Z,100.00
2022-07-31T03:46:24.916Z,100.00
2022-07-31T03:47:29.350Z,100.00
2022-07-31T03:48:33.846Z,100.00
2022-07-31T03:49:39.051Z,100.00
2022-07-31T03:50:45.329Z,100.00
2022-07-31T03:51:49.424Z,100.00
2022-07-31T03:52:53.652Z,100.00
2022-07-31T03:53:57.543Z,100.00
2022-07-31T03:55:01.949Z,100.00
2022-07-31T03:56:07.831Z,100.00
2022-07-31T03:57:12.505Z,100.00
2022-07-31T03:58:19.379Z,100.00
2022-07-31T03:59:27.593Z,100.00
2022-07-31T04:00:34.949Z,100.00
2022-07-31T04:01:58.212Z,100.00
2022-07-31T04:03:08.792Z,100.00
2022-07-31T04:04:13.781Z,100.00
2022-07-31T04:05:17.676Z,100.00
2022-07-31T04:06:21.490Z,100.00
2022-07-31T04:07:25.728Z,100.00
2022-07-31T04:08:29.871Z,100.00
2022-07-31T04:09:33.895Z,100.00
2022-07-31T04:10:38.486Z,100.00
2022-07-31T04:11:42.707Z,100.00
2022-07-31T04:12:46.700Z,100.00
2022-07-31T04:13:52.550Z,100.00
2022-07-31T04:14:56.464Z,100.00
2022-07-31T04:16:00.205Z,100.00
2022-07-31T04:17:04.070Z,100.00
2022-07-31T04:18:07.820Z,100.00
2022-07-31T04:19:11.525Z,100.00
2022-07-31T04:20:15.737Z,100.00
2022-07-31T04:21:19.620Z,100.00
2022-07-31T04:22:23.386Z,100.00
2022-07-31T04:23:32.554Z,100.00
2022-07-31T04:24:36.646Z,99.91
2022-07-31T04:25:40.548Z,99.77
2022-07-31T04:26:45.669Z,99.87
2022-07-31T04:27:50.419Z,99.89
2022-07-31T04:28:54.311Z,99.41
2022-07-31T04:29:58.511Z,99.19
2022-07-31T04:31:02.190Z,99.29
2022-07-31T04:32:06.603Z,99.32
2022-07-31T04:33:10.506Z,99.06
2022-07-31T04:34:14.533Z,98.26
2022-07-31T04:35:18.678Z,98.09
2022-07-31T04:36:29.597Z,98.13
2022-07-31T04:37:34.914Z,98.11
2022-07-31T04:38:38.578Z,97.58
2022-07-31T04:39:42.808Z,97.73
2022-07-31T04:40:46.492Z,97.31
2022-07-31T04:41:51.904Z,97.06
2022-07-31T04:42:56.438Z,96.46
2022-07-31T04:44:00.242Z,96.27
2022-07-31T04:45:04.652Z,96.32
2022-07-31T04:46:17.352Z,96.42
2022-07-31T04:47:21.884Z,96.32
2022-07-31T04:48:25.622Z,95.34
2022-07-31T04:49:31.091Z,94.30
2022-07-31T04:50:36.839Z,94.81
2022-07-31T04:51:42.556Z,94.52
2022-07-31T04:52:47.122Z,94.55
2022-07-31T04:53:52.400Z,94.56
2022-07-31T04:54:56.020Z,93.74
2022-07-31T04:56:18.149Z,93.66
2022-07-31T04:57:22.341Z,93.09
2022-07-31T04:58:26.679Z,93.03
2022-07-31T04:59:59.150Z,93.53
2022-07-31T05:00:54.397Z,93.28
2022-07-31T05:01:58.271Z,93.09
2022-07-31T05:03:02.076Z,92.75
2022-07-31T05:04:08.361Z,92.77
2022-07-31T05:05:12.142Z,92.81
2022-07-31T05:06:16.009Z,92.89
2022-07-31T05:07:20.071Z,93.05
2022-07-31T05:08:23.689Z,92.96
2022-07-31T05:09:33.320Z,93.08
2022-07-31T05:10:58.639Z,92.70
2022-07-31T05:12:03.070Z,92.26
2022-07-31T05:13:07.087Z,92.39
2022-07-31T05:14:14.107Z,92.09
2022-07-31T05:15:18.603Z,92.32
2022-07-31T05:16:24.093Z,92.14
2022-07-31T05:17:28.035Z,92.22
2022-07-31T05:18:33.070Z,92.28
2022-07-31T05:19:37.026Z,92.44
2022-07-31T05:20:40.745Z,92.59
2022-07-31T05:21:53.133Z,92.59
2022-07-31T05:22:58.501Z,92.78
2022-07-31T05:24:04.703Z,92.94
2022-07-31T05:26:45.713Z,93.12
2022-07-31T05:27:50.144Z,92.86
2022-07-31T05:28:58.428Z,93.01
2022-07-31T05:30:02.657Z,93.38
2022-07-31T05:31:08.690Z,93.62
2022-07-31T05:32:12.653Z,93.96
2022-07-31T05:33:16.684Z,94.11
2022-07-31T05:34:20.485Z,94.26
2022-07-31T05:35:24.107Z,94.51
2022-07-31T05:36:28.244Z,94.73
2022-07-31T05:37:34.005Z,94.92
2022-07-31T05:38:38.031Z,95.18
2022-07-31T05:39:41.754Z,95.28
2022-07-31T05:40:45.516Z,95.47
2022-07-31T05:41:51.138Z,95.63
2022-07-31T05:42:55.568Z,95.60
2022-07-31T05:43:59.595Z,95.43
2022-07-31T05:45:03.415Z,95.48
2022-07-31T05:46:07.665Z,95.57
2022-07-31T05:47:11.501Z,95.58
2022-07-31T05:48:18.503Z,95.53
2022-07-31T05:49:22.532Z,95.55
2022-07-31T05:50:26.433Z,95.23
2022-07-31T05:51:31.207Z,94.95
2022-07-31T05:52:35.003Z,94.94
2022-07-31T05:53:40.500Z,95.09
2022-07-31T05:54:48.010Z,94.66
2022-07-31T05:55:52.149Z,94.89
2022-07-31T05:56:56.661Z,94.57
2022-07-31T05:58:01.038Z,94.53
2022-07-31T05:59:04.843Z,94.38
2022-07-31T06:00:10.049Z,94.27
2022-07-31T06:01:15.257Z,94.16
2022-07-31T06:02:19.226Z,94.18
2022-07-31T06:03:25.532Z,94.13
2022-07-31T06:04:29.585Z,94.05
2022-07-31T06:05:34.579Z,94.00
2022-07-31T06:06:38.502Z,93.90
2022-07-31T06:07:47.204Z,93.79
2022-07-31T06:08:55.642Z,93.87
2022-07-31T06:10:00.844Z,93.81
2022-07-31T06:11:04.962Z,93.87
2022-07-31T06:12:09.384Z,93.93
2022-07-31T06:13:14.980Z,93.78
2022-07-31T06:14:19.291Z,94.28
2022-07-31T06:15:23.476Z,94.43
2022-07-31T06:16:27.372Z,94.53
2022-07-31T06:17:44.682Z,94.44
2022-07-31T06:18:48.687Z,94.11
2022-07-31T06:19:52.925Z,94.29
2022-07-31T06:20:56.905Z,94.40
2022-07-31T06:22:00.890Z,94.24
2022-07-31T06:23:22.496Z,94.28
2022-07-31T06:24:27.212Z,94.40
2022-07-31T06:25:38.738Z,94.50
2022-07-31T06:26:42.706Z,94.29
2022-07-31T06:27:55.149Z,94.23
2022-07-31T06:29:04.636Z,94.53
2022-07-31T06:30:10.027Z,94.68
2022-07-31T06:31:23.395Z,94.88
2022-07-31T06:32:27.267Z,94.72
2022-07-31T06:33:37.746Z,94.90
2022-07-31T06:34:43.215Z,94.25
2022-07-31T06:35:46.925Z,94.16
2022-07-31T06:36:51.414Z,94.50
2022-07-31T06:37:55.239Z,94.35
2022-07-31T06:38:58.986Z,94.61
2022-07-31T06:40:04.445Z,94.35
2022-07-31T06:41:08.505Z,93.97
2022-07-31T06:42:19.573Z,94.35
2022-07-31T06:43:23.521Z,94.14
2022-07-31T06:44:27.722Z,94.05
2022-07-31T06:45:50.814Z,93.68
2022-07-31T06:46:55.493Z,93.47
2022-07-31T06:47:59.336Z,93.36
2022-07-31T06:49:06.883Z,93.42
2022-07-31T06:50:12.983Z,93.20
2022-07-31T06:51:32.627Z,93.59
2022-07-31T06:52:36.956Z,93.45
2022-07-31T06:53:40.688Z,93.83
2022-07-31T06:54:45.360Z,94.20
2022-07-31T06:55:49.061Z,94.30
2022-07-31T06:56:53.182Z,94.34
2022-07-31T06:57:57.674Z,94.15
2022-07-31T06:59:02.530Z,94.10
2022-07-31T07:00:15.223Z,93.86
2022-07-31T07:01:24.504Z,94.03
2022-07-31T07:02:28.411Z,94.19
2022-07-31T07:03:32.865Z,94.45
2022-07-31T07:05:04.372Z,94.10
2022-07-31T07:06:03.584Z,93.97
2022-07-31T07:07:07.433Z,94.19
2022-07-31T07:08:11.155Z,94.59
2022-07-31T07:09:15.029Z,94.60
2022-07-31T07:10:18.957Z,94.50
2022-07-31T07:11:22.865Z,94.42
2022-07-31T07:12:27.093Z,94.95
2022-07-31T07:13:44.903Z,94.76
2022-07-31T07:14:49.396Z,94.44
2022-07-31T07:15:53.943Z,94.34
2022-07-31T07:16:57.639Z,94.50
2022-07-31T07:18:01.472Z,94.59
2022-07-31T07:19:05.581Z,94.80
2022-07-31T07:20:10.139Z,94.94
2022-07-31T07:21:14.120Z,94.93
2022-07-31T07:22:18.098Z,95.01
2022-07-31T07:23:35.039Z,95.47
2022-07-31T07:24:39.162Z,95.43
2022-07-31T07:25:43.214Z,95.42
2022-07-31T07:26:47.016Z,95.30
2022-07-31T07:27:50.847Z,95.37
2022-07-31T07:28:54.600Z,95.62
2022-07-31T07:29:59.915Z,95.76
2022-07-31T07:31:05.600Z,95.18
2022-07-31T07:32:10.157Z,95.28
2022-07-31T07:33:14.221Z,95.75
2022-07-31T07:34:38.038Z,95.58
2022-07-31T07:35:42.981Z,95.73
2022-07-31T07:36:46.777Z,96.14
2022-07-31T07:37:50.698Z,96.13
2022-07-31T07:38:55.932Z,96.44
2022-07-31T07:40:03.676Z,96.12
2022-07-31T07:41:07.951Z,96.24
2022-07-31T07:42:11.797Z,95.82
2022-07-31T07:43:15.920Z,95.46
2022-07-31T07:44:19.719Z,95.56
2022-07-31T07:45:24.547Z,94.08
2022-07-31T07:46:28.563Z,94.81
2022-07-31T07:47:53.750Z,93.88
2022-07-31T07:48:56.142Z,94.54
2022-07-31T07:50:00.678Z,95.03
2022-07-31T07:51:04.582Z,95.29
2022-07-31T07:52:08.487Z,95.26
2022-07-31T07:53:13.504Z,94.93
2022-07-31T07:54:17.437Z,94.12
2022-07-31T07:55:21.331Z,94.35
2022-07-31T07:56:25.278Z,94.38
2022-07-31T07:57:29.896Z,94.01
2022-07-31T07:58:33.752Z,94.02
2022-07-31T07:59:37.615Z,94.22
2022-07-31T08:00:41.597Z,94.00
2022-07-31T08:01:45.485Z,94.33
2022-07-31T08:03:02.814Z,94.18
2022-07-31T08:04:13.768Z,94.02
2022-07-31T08:05:17.887Z,94.21
2022-07-31T08:06:23.556Z,94.37
2022-07-31T08:07:42.782Z,93.97
2022-07-31T08:08:46.903Z,93.80
2022-07-31T08:09:50.575Z,93.84
2022-07-31T08:10:54.776Z,94.07
2022-07-31T08:11:59.489Z,93.46
2022-07-31T08:13:03.617Z,93.51
2022-07-31T08:14:07.613Z,93.84
2022-07-31T08:15:12.921Z,93.46
2022-07-31T08:16:16.988Z,93.28
2022-07-31T08:17:21.382Z,93.41
2022-07-31T08:18:27.246Z,93.33
2022-07-31T08:19:32.299Z,93.19
2022-07-31T08:20:38.880Z,93.20
2022-07-31T08:21:42.868Z,93.16
2022-07-31T08:22:47.028Z,92.80
2022-07-31T08:23:52.886Z,92.79
2022-07-31T08:24:57.337Z,92.67
2022-07-31T08:26:01.129Z,92.66
2022-07-31T08:27:39.578Z,92.72
2022-07-31T08:28:49.894Z,92.61
2022-07-31T08:30:00.972Z,92.30
2022-07-31T08:31:05.499Z,92.10
2022-07-31T08:32:09.350Z,92.39
2022-07-31T08:33:13.359Z,92.62
2022-07-31T08:34:31.013Z,92.33
2022-07-31T08:35:35.911Z,92.71
2022-07-31T08:36:42.374Z,92.89
2022-07-31T08:37:52.613Z,92.86
2022-07-31T08:39:08.281Z,93.00
2022-07-31T08:40:22.121Z,93.04
2022-07-31T08:41:26.350Z,92.81
2022-07-31T08:42:30.420Z,92.88
2022-07-31T08:44:01.472Z,93.23
2022-07-31T08:44:58.128Z,93.23
2022-07-31T08:46:03.324Z,93.33
2022-07-31T08:47:15.307Z,93.23
2022-07-31T08:48:25.484Z,93.29
2022-07-31T08:49:33.631Z,93.54
2022-07-31T08:50:40.589Z,93.52
2022-07-31T08:51:51.699Z,93.64
2022-07-31T08:53:00.294Z,93.56
2022-07-31T08:54:10.930Z,93.70
2022-07-31T08:55:24.877Z,93.72
2022-07-31T08:56:40.656Z,93.78
2022-07-31T08:57:51.059Z,92.98
2022-07-31T08:58:57.366Z,93.73
2022-07-31T09:00:01.466Z,93.51
2022-07-31T09:01:06.256Z,93.70
2022-07-31T09:02:15.629Z,93.80
2022-07-31T09:03:20.409Z,93.62
2022-07-31T09:04:26.012Z,93.98
2022-07-31T09:05:41.816Z,93.70
2022-07-31T09:06:46.879Z,93.45
2022-07-31T09:07:50.773Z,93.54
2022-07-31T09:08:57.243Z,93.28
2022-07-31T09:10:01.757Z,93.03
2022-07-31T09:11:15.461Z,93.56
2022-07-31T09:12:34.839Z,93.68
2022-07-31T09:13:39.297Z,93.42
2022-07-31T09:14:49.699Z,93.60
2022-07-31T09:15:59.423Z,93.18
2022-07-31T09:17:07.680Z,93.20
2022-07-31T09:18:22.427Z,93.34
2022-07-31T09:19:54.133Z,93.43
2022-07-31T09:21:05.930Z,93.07
2022-07-31T09:22:31.436Z,93.13
2022-07-31T09:23:48.502Z,93.15
2022-07-31T09:24:53.340Z,93.15
2022-07-31T09:26:06.212Z,93.14
2022-07-31T09:27:10.775Z,93.06
2022-07-31T09:28:14.789Z,92.99
2022-07-31T09:29:18.517Z,92.82
2022-07-31T09:30:22.379Z,93.00
2022-07-31T09:31:33.872Z,93.23
2022-07-31T09:32:37.512Z,92.97
2022-07-31T09:33:47.084Z,92.88
2022-07-31T09:34:50.811Z,92.52
2022-07-31T09:35:55.084Z,92.59
2022-07-31T09:37:16.527Z,92.95
2022-07-31T09:38:21.292Z,92.53
2022-07-31T09:39:27.158Z,92.41
2022-07-31T09:40:37.545Z,92.46
2022-07-31T09:42:01.733Z,92.05
2022-07-31T09:43:25.659Z,91.84
2022-07-31T09:44:41.707Z,92.16
2022-07-31T09:45:49.195Z,91.76
2022-07-31T09:46:52.996Z,91.60
2022-07-31T09:48:12.582Z,91.83
2022-07-31T09:49:17.714Z,91.42
2022-07-31T09:50:24.745Z,91.31
2022-07-31T09:51:42.511Z,91.59
2022-07-31T09:52:46.242Z,91.24
2022-07-31T09:53:56.738Z,91.15
2022-07-31T09:55:15.780Z,91.04
2022-07-31T09:56:35.328Z,90.59
2022-07-31T09:57:54.696Z,90.23
2022-07-31T09:58:59.506Z,89.86
2022-07-31T10:00:06.637Z,89.62
2022-07-31T10:01:13.311Z,90.22
2022-07-31T10:02:20.678Z,90.08
2022-07-31T10:03:26.969Z,90.24
2022-07-31T10:04:31.390Z,90.15
2022-07-31T10:05:38.335Z,90.03
2022-07-31T10:06:43.892Z,90.10
2022-07-31T10:07:49.373Z,89.92
2022-07-31T10:08:55.733Z,89.68
2022-07-31T10:10:01.133Z,89.77
2022-07-31T10:11:16.406Z,89.95
2022-07-31T10:12:22.233Z,89.66
2022-07-31T10:13:26.511Z,89.90
2022-07-31T10:14:40.213Z,89.79
2022-07-31T10:15:48.803Z,89.75
2022-07-31T10:16:59.205Z,89.68
2022-07-31T10:18:05.885Z,89.80
2022-07-31T10:19:14.202Z,89.44
2022-07-31T10:20:23.699Z,89.22
2022-07-31T10:21:42.028Z,89.34
2022-07-31T10:23:09.392Z,89.15
2022-07-31T10:24:13.218Z,88.47
2022-07-31T10:25:28.929Z,88.95
2022-07-31T10:26:57.718Z,88.42
2022-07-31T10:27:58.486Z,88.71
2022-07-31T10:29:03.692Z,88.63
2022-07-31T10:30:09.123Z,88.63
2022-07-31T10:31:15.010Z,88.59
2022-07-31T10:32:19.675Z,88.69
2022-07-31T10:33:42.972Z,88.63
2022-07-31T10:34:48.871Z,89.10
2022-07-31T10:36:20.046Z,89.19
2022-07-31T10:37:43.485Z,89.17
2022-07-31T10:39:08.476Z,89.22
2022-07-31T10:40:24.838Z,89.48
2022-07-31T10:41:46.669Z,89.45
2022-07-31T10:43:03.309Z,89.69
2022-07-31T10:44:28.068Z,90.02
2022-07-31T10:45:32.078Z,89.89
2022-07-31T10:46:36.342Z,90.11
2022-07-31T10:47:48.045Z,90.14
2022-07-31T10:48:54.354Z,90.78
2022-07-31T10:49:58.671Z,90.45
2022-07-31T10:51:12.866Z,90.97
2022-07-31T10:52:33.686Z,91.32
2022-07-31T10:53:51.665Z,90.96
2022-07-31T10:55:02.215Z,90.94
2022-07-31T10:56:13.767Z,90.99
2022-07-31T10:57:26.967Z,90.75
2022-07-31T10:58:31.176Z,90.90
2022-07-31T10:59:35.299Z,91.01
2022-07-31T11:00:40.666Z,91.43
2022-07-31T11:01:55.277Z,91.56
2022-07-31T11:02:59.147Z,91.51
2022-07-31T11:04:04.992Z,91.87
2022-07-31T11:05:16.571Z,91.75
2022-07-31T11:06:21.778Z,92.20
2022-07-31T11:07:25.978Z,92.38
2022-07-31T11:08:47.924Z,92.48
2022-07-31T11:09:53.222Z,92.35
2022-07-31T11:11:03.477Z,92.42
2022-07-31T11:12:21.409Z,92.88
2022-07-31T11:13:36.878Z,92.83
2022-07-31T11:14:41.039Z,93.05
2022-07-31T11:15:44.779Z,93.18
2022-07-31T11:16:53.083Z,92.81
2022-07-31T11:18:21.159Z,92.98
2022-07-31T11:19:21.618Z,93.16
2022-07-31T11:20:30.009Z,93.44
2022-07-31T11:21:41.916Z,93.52
2022-07-31T11:23:03.472Z,93.35
2022-07-31T11:24:22.332Z,93.24
2022-07-31T11:25:30.297Z,92.83
2022-07-31T11:26:41.253Z,93.13
2022-07-31T11:27:46.742Z,93.30
2022-07-31T11:28:50.710Z,93.19
2022-07-31T11:29:58.579Z,93.23
2022-07-31T11:31:09.985Z,93.15
2022-07-31T11:32:16.256Z,93.43
2022-07-31T11:33:47.538Z,93.67
2022-07-31T11:34:55.355Z,93.45
2022-07-31T11:36:30.094Z,93.86
2022-07-31T11:37:56.398Z,93.21
2022-07-31T11:38:57.899Z,93.27
2022-07-31T11:40:03.800Z,93.97
2022-07-31T11:41:10.143Z,93.69
2022-07-31T11:42:15.912Z,93.65
2022-07-31T11:43:27.449Z,93.28
2022-07-31T11:44:31.282Z,93.55
2022-07-31T11:45:53.431Z,94.02
2022-07-31T11:46:58.494Z,93.92
2022-07-31T11:48:11.465Z,93.96
2022-07-31T11:49:23.748Z,94.32
2022-07-31T11:50:49.863Z,94.16
2022-07-31T11:52:02.020Z,94.09
2022-07-31T11:53:07.287Z,94.01
2022-07-31T11:54:11.293Z,93.77
2022-07-31T11:55:16.865Z,93.39
2022-07-31T11:56:21.868Z,93.43
2022-07-31T11:57:52.363Z,93.42
2022-07-31T11:58:58.630Z,92.63
2022-07-31T12:00:29.369Z,93.19
2022-07-31T12:01:34.042Z,92.48
2022-07-31T12:02:44.610Z,92.54
2022-07-31T12:03:50.905Z,93.36
2022-07-31T12:04:54.903Z,93.28
2022-07-31T12:05:59.501Z,93.39
2022-07-31T12:07:09.604Z,93.69
2022-07-31T12:08:14.809Z,93.93
2022-07-31T12:10:00.465Z,93.34
2022-07-31T12:10:43.557Z,93.32
2022-07-31T12:11:47.326Z,93.31
2022-07-31T12:12:51.350Z,93.32
2022-07-31T12:13:55.473Z,93.51
2022-07-31T12:14:59.404Z,93.20
2022-07-31T12:16:11.434Z,93.13
2022-07-31T12:17:22.944Z,92.80
2022-07-31T12:18:29.273Z,92.44
2022-07-31T12:19:37.421Z,92.52
2022-07-31T12:21:03.494Z,92.73
2022-07-31T12:22:15.073Z,92.87
2022-07-31T12:23:41.010Z,93.04
2022-07-31T12:24:45.150Z,92.94
2022-07-31T12:25:49.576Z,93.02
2022-07-31T12:27:00.870Z,93.25
2022-07-31T12:28:05.090Z,93.00
2022-07-31T12:29:12.161Z,93.32
2022-07-31T12:30:18.405Z,93.28
2022-07-31T12:31:22.335Z,93.25
2022-07-31T12:32:27.865Z,93.21
2022-07-31T12:33:42.775Z,93.44
2022-07-31T12:34:46.666Z,93.36
2022-07-31T12:35:55.771Z,93.78
2022-07-31T12:37:16.187Z,94.12
2022-07-31T12:38:47.640Z,94.26
2022-07-31T12:40:00.103Z,93.94
2022-07-31T12:41:05.858Z,94.18
2022-07-31T12:42:09.721Z,94.54
2022-07-31T12:43:13.711Z,94.87
2022-07-31T12:44:21.564Z,94.80
2022-07-31T12:45:31.116Z,94.89
2022-07-31T12:46:39.676Z,94.36
2022-07-31T12:47:43.883Z,94.44
2022-07-31T12:48:48.134Z,94.00
2022-07-31T12:49:52.972Z,94.32
2022-07-31T12:50:57.431Z,94.03
2022-07-31T12:52:01.238Z,94.44
2022-07-31T12:53:05.487Z,94.43
2022-07-31T12:54:10.290Z,94.31
2022-07-31T12:55:17.202Z,94.04
2022-07-31T12:56:21.523Z,94.29
2022-07-31T12:57:25.970Z,94.36
2022-07-31T12:58:29.914Z,94.35
2022-07-31T12:59:33.875Z,94.69
2022-07-31T13:00:40.197Z,95.13
2022-07-31T13:01:44.626Z,95.16
2022-07-31T13:02:49.285Z,95.49
2022-07-31T13:03:53.100Z,95.63
2022-07-31T13:04:57.884Z,95.67
2022-07-31T13:06:01.801Z,95.40
2022-07-31T13:07:06.699Z,95.88
2022-07-31T13:08:10.614Z,96.07
2022-07-31T13:09:14.665Z,96.43
2022-07-31T13:10:23.945Z,96.40
2022-07-31T13:11:46.629Z,96.66
2022-07-31T13:12:53.168Z,97.05
2022-07-31T13:13:58.189Z,97.06
2022-07-31T13:15:02.357Z,97.04
2022-07-31T13:16:07.412Z,97.40
2022-07-31T13:17:11.615Z,97.44
2022-07-31T13:18:15.731Z,97.56
2022-07-31T13:19:20.323Z,97.45
2022-07-31T13:20:24.425Z,97.37
2022-07-31T13:21:28.334Z,97.47
2022-07-31T13:22:52.192Z,97.16
2022-07-31T13:24:00.101Z,96.67
2022-07-31T13:25:05.847Z,96.88
2022-07-31T13:26:09.629Z,96.93
2022-07-31T13:27:13.657Z,97.14
2022-07-31T13:28:17.580Z,97.38
2022-07-31T13:29:21.440Z,97.17
2022-07-31T13:30:25.826Z,97.70
2022-07-31T13:31:30.031Z,97.60
2022-07-31T13:32:33.882Z,97.78
2022-07-31T13:33:38.135Z,97.73
2022-07-31T13:34:42.143Z,98.22
2022-07-31T13:35:46.083Z,98.31
2022-07-31T13:36:49.936Z,98.32
2022-07-31T13:37:54.260Z,98.41
2022-07-31T13:38:58.555Z,98.45
2022-07-31T13:40:03.206Z,98.28
2022-07-31T13:41:24.289Z,98.05
2022-07-31T13:42:29.462Z,98.23
2022-07-31T13:43:34.039Z,98.23
2022-07-31T13:44:38.549Z,98.17
2022-07-31T13:45:42.528Z,98.15
2022-07-31T13:46:46.894Z,98.41
2022-07-31T13:47:52.896Z,98.42
2022-07-31T13:49:01.030Z,98.71
2022-07-31T13:50:06.928Z,98.45
2022-07-31T13:51:10.908Z,98.73
2022-07-31T13:52:14.834Z,99.02
2022-07-31T13:53:18.681Z,99.06
2022-07-31T13:54:23.285Z,98.96
2022-07-31T13:55:27.422Z,98.86
2022-07-31T13:56:40.950Z,99.13
2022-07-31T13:57:47.017Z,99.16
2022-07-31T13:58:52.371Z,98.73
2022-07-31T13:59:56.305Z,98.80
2022-07-31T14:01:04.398Z,99.69
2022-07-31T14:02:08.794Z,99.54
2022-07-31T14:03:15.276Z,99.80
2022-07-31T14:04:23.397Z,99.64
2022-07-31T14:05:28.312Z,99.99
2022-07-31T14:06:32.718Z,100.00
2022-07-31T14:07:45.106Z,99.75
2022-07-31T14:08:50.678Z,99.92
2022-07-31T14:09:55.423Z,100.00
2022-07-31T14:11:00.054Z,99.91
2022-07-31T14:12:05.618Z,100.00
2022-07-31T14:13:09.970Z,99.85
2022-07-31T14:14:13.830Z,99.79
2022-07-31T14:15:28.588Z,100.00
2022-07-31T14:16:34.152Z,99.71
2022-07-31T14:17:38.074Z,99.94
2022-07-31T14:18:42.845Z,99.94
2022-07-31T14:19:46.743Z,99.81
2022-07-31T14:20:51.598Z,99.52
2022-07-31T14:21:56.774Z,99.36
2022-07-31T14:23:05.023Z,99.42
2022-07-31T14:24:09.586Z,99.03
2022-07-31T14:25:13.974Z,99.31
2022-07-31T14:26:18.713Z,99.30
2022-07-31T14:27:22.532Z,99.28
2022-07-31T14:28:27.762Z,99.30
2022-07-31T14:29:31.715Z,99.33
2022-07-31T14:30:46.436Z,99.21